sensor_id;sensor_type;location;lat;lon;timestamp;P1;durP1;ratioP1;P2;durP2;ratioP2
8397;SDS011;4236;54.504;9.588;2023-01-24T00:01:12;23.13;;;21.43;;
8397;SDS011;4236;54.504;9.588;2023-01-24T00:03:41;22.80;;;21.20;;
8397;SDS011;4236;54.504;9.588;2023-01-24T00:06:09;23.73;;;22.23;;
8397;SDS011;4236;54.504;9.588;2023-01-24T00:08:36;23.80;;;22.00;;
8397;SDS011;4236;54.504;9.588;2023-01-24T00:11:05;22.27;;;20.57;;
8397;SDS011;4236;54.504;9.588;2023-01-24T00:13:34;22.20;;;20.70;;
8397;SDS011;4236;54.504;9.588;2023-01-24T00:16:03;23.57;;;21.87;;
8397;SDS011;4236;54.504;9.588;2023-01-24T00:18:33;25.50;;;23.60;;
8397;SDS011;4236;54.504;9.588;2023-01-24T00:21:02;26.33;;;24.47;;
8397;SDS011;4236;54.504;9.588;2023-01-24T00:23:31;23.37;;;21.97;;
8397;SDS011;4236;54.504;9.588;2023-01-24T00:25:58;25.27;;;23.57;;
8397;SDS011;4236;54.504;9.588;2023-01-24T00:28:26;25.50;;;23.60;;
8397;SDS011;4236;54.504;9.588;2023-01-24T00:30:54;25.47;;;23.80;;
8397;SDS011;4236;54.504;9.588;2023-01-24T00:33:21;25.77;;;24.07;;
8397;SDS011;4236;54.504;9.588;2023-01-24T00:35:49;26.93;;;25.13;;
8397;SDS011;4236;54.504;9.588;2023-01-24T00:38:19;26.27;;;24.30;;
8397;SDS011;4236;54.504;9.588;2023-01-24T00:40:47;25.10;;;23.53;;
8397;SDS011;4236;54.504;9.588;2023-01-24T00:43:15;25.70;;;23.90;;
8397;SDS011;4236;54.504;9.588;2023-01-24T00:45:43;25.90;;;24.20;;
8397;SDS011;4236;54.504;9.588;2023-01-24T00:48:12;26.60;;;24.60;;
8397;SDS011;4236;54.504;9.588;2023-01-24T00:50:41;28.07;;;25.93;;
8397;SDS011;4236;54.504;9.588;2023-01-24T00:53:09;26.83;;;25.07;;
8397;SDS011;4236;54.504;9.588;2023-01-24T00:55:41;26.73;;;24.73;;
8397;SDS011;4236;54.504;9.588;2023-01-24T00:58:09;26.37;;;24.47;;
8397;SDS011;4236;54.504;9.588;2023-01-24T01:00:38;26.20;;;24.50;;
8397;SDS011;4236;54.504;9.588;2023-01-24T01:03:06;25.57;;;23.77;;
8397;SDS011;4236;54.504;9.588;2023-01-24T01:05:34;27.87;;;26.07;;
8397;SDS011;4236;54.504;9.588;2023-01-24T01:08:02;26.57;;;24.87;;
8397;SDS011;4236;54.504;9.588;2023-01-24T01:10:30;24.77;;;23.20;;
8397;SDS011;4236;54.504;9.588;2023-01-24T01:12:59;24.73;;;23.23;;
8397;SDS011;4236;54.504;9.588;2023-01-24T01:15:27;26.00;;;24.17;;
8397;SDS011;4236;54.504;9.588;2023-01-24T01:17:56;23.93;;;22.10;;
8397;SDS011;4236;54.504;9.588;2023-01-24T01:20:24;24.40;;;22.70;;
8397;SDS011;4236;54.504;9.588;2023-01-24T01:22:54;25.10;;;23.50;;
8397;SDS011;4236;54.504;9.588;2023-01-24T01:25:22;25.90;;;24.07;;
8397;SDS011;4236;54.504;9.588;2023-01-24T01:27:50;26.37;;;24.47;;
8397;SDS011;4236;54.504;9.588;2023-01-24T01:30:19;25.63;;;23.90;;
8397;SDS011;4236;54.504;9.588;2023-01-24T01:32:47;27.10;;;25.10;;
8397;SDS011;4236;54.504;9.588;2023-01-24T01:35:14;24.80;;;23.20;;
8397;SDS011;4236;54.504;9.588;2023-01-24T01:37:42;26.00;;;24.20;;
8397;SDS011;4236;54.504;9.588;2023-01-24T01:40:10;27.00;;;24.83;;
8397;SDS011;4236;54.504;9.588;2023-01-24T01:42:45;24.93;;;23.47;;
8397;SDS011;4236;54.504;9.588;2023-01-24T01:48:12;23.97;;;22.50;;
8397;SDS011;4236;54.504;9.588;2023-01-24T01:50:44;22.57;;;21.27;;
8397;SDS011;4236;54.504;9.588;2023-01-24T01:53:15;22.37;;;21.10;;
8397;SDS011;4236;54.504;9.588;2023-01-24T01:55:45;22.53;;;21.03;;
8397;SDS011;4236;54.504;9.588;2023-01-24T01:58:17;24.20;;;22.70;;
8397;SDS011;4236;54.504;9.588;2023-01-24T02:00:48;24.63;;;22.77;;
8397;SDS011;4236;54.504;9.588;2023-01-24T02:03:18;25.20;;;23.00;;
8397;SDS011;4236;54.504;9.588;2023-01-24T02:06:08;24.93;;;23.23;;
8397;SDS011;4236;54.504;9.588;2023-01-24T02:08:43;25.37;;;23.17;;
8397;SDS011;4236;54.504;9.588;2023-01-24T02:11:11;24.47;;;22.80;;
8397;SDS011;4236;54.504;9.588;2023-01-24T02:13:59;23.70;;;22.20;;
8397;SDS011;4236;54.504;9.588;2023-01-24T02:16:46;24.97;;;23.47;;
8397;SDS011;4236;54.504;9.588;2023-01-24T02:19:16;26.83;;;25.03;;
8397;SDS011;4236;54.504;9.588;2023-01-24T02:21:54;25.77;;;24.10;;
8397;SDS011;4236;54.504;9.588;2023-01-24T02:24:30;27.17;;;25.47;;
8397;SDS011;4236;54.504;9.588;2023-01-24T02:27:04;24.70;;;22.97;;
8397;SDS011;4236;54.504;9.588;2023-01-24T02:29:32;26.10;;;24.27;;
8397;SDS011;4236;54.504;9.588;2023-01-24T02:32:00;26.67;;;24.80;;
8397;SDS011;4236;54.504;9.588;2023-01-24T02:34:29;27.10;;;25.37;;
8397;SDS011;4236;54.504;9.588;2023-01-24T02:36:58;25.87;;;24.17;;
8397;SDS011;4236;54.504;9.588;2023-01-24T02:39:29;26.50;;;24.80;;
8397;SDS011;4236;54.504;9.588;2023-01-24T02:42:00;26.33;;;24.53;;
8397;SDS011;4236;54.504;9.588;2023-01-24T02:44:34;26.27;;;24.43;;
8397;SDS011;4236;54.504;9.588;2023-01-24T02:47:07;26.77;;;25.00;;
8397;SDS011;4236;54.504;9.588;2023-01-24T02:49:35;26.70;;;24.80;;
8397;SDS011;4236;54.504;9.588;2023-01-24T02:52:03;26.27;;;24.50;;
8397;SDS011;4236;54.504;9.588;2023-01-24T02:54:49;24.80;;;23.20;;
8397;SDS011;4236;54.504;9.588;2023-01-24T02:57:16;26.47;;;24.33;;
8397;SDS011;4236;54.504;9.588;2023-01-24T03:00:04;27.83;;;25.70;;
8397;SDS011;4236;54.504;9.588;2023-01-24T03:02:32;28.17;;;25.97;;
8397;SDS011;4236;54.504;9.588;2023-01-24T03:05:00;25.57;;;23.87;;
8397;SDS011;4236;54.504;9.588;2023-01-24T03:07:28;26.17;;;24.37;;
8397;SDS011;4236;54.504;9.588;2023-01-24T03:10:08;28.87;;;26.77;;
8397;SDS011;4236;54.504;9.588;2023-01-24T03:12:36;26.97;;;25.03;;
8397;SDS011;4236;54.504;9.588;2023-01-24T03:15:23;29.30;;;26.80;;
8397;SDS011;4236;54.504;9.588;2023-01-24T03:18:09;28.83;;;26.57;;
8397;SDS011;4236;54.504;9.588;2023-01-24T03:20:55;27.73;;;25.60;;
8397;SDS011;4236;54.504;9.588;2023-01-24T03:23:40;26.47;;;24.53;;
8397;SDS011;4236;54.504;9.588;2023-01-24T03:26:25;27.50;;;25.50;;
8397;SDS011;4236;54.504;9.588;2023-01-24T03:29:11;28.10;;;25.77;;
8397;SDS011;4236;54.504;9.588;2023-01-24T03:31:57;27.00;;;25.00;;
8397;SDS011;4236;54.504;9.588;2023-01-24T03:34:43;29.30;;;27.17;;
8397;SDS011;4236;54.504;9.588;2023-01-24T03:37:15;28.70;;;26.70;;
8397;SDS011;4236;54.504;9.588;2023-01-24T03:40:04;28.93;;;26.63;;
8397;SDS011;4236;54.504;9.588;2023-01-24T03:42:34;28.97;;;26.77;;
8397;SDS011;4236;54.504;9.588;2023-01-24T03:45:13;29.77;;;27.57;;
8397;SDS011;4236;54.504;9.588;2023-01-24T03:47:45;27.00;;;25.20;;
8397;SDS011;4236;54.504;9.588;2023-01-24T03:50:21;28.30;;;26.23;;
8397;SDS011;4236;54.504;9.588;2023-01-24T03:53:07;27.87;;;25.87;;
8397;SDS011;4236;54.504;9.588;2023-01-24T03:55:35;27.80;;;25.93;;
8397;SDS011;4236;54.504;9.588;2023-01-24T03:58:03;28.03;;;25.70;;
8397;SDS011;4236;54.504;9.588;2023-01-24T04:00:31;28.30;;;26.23;;
8397;SDS011;4236;54.504;9.588;2023-01-24T04:03:01;26.37;;;24.60;;
8397;SDS011;4236;54.504;9.588;2023-01-24T04:05:29;28.53;;;26.30;;
8397;SDS011;4236;54.504;9.588;2023-01-24T04:07:59;27.03;;;25.00;;
8397;SDS011;4236;54.504;9.588;2023-01-24T04:10:27;27.87;;;25.80;;
8397;SDS011;4236;54.504;9.588;2023-01-24T04:12:55;30.50;;;28.10;;
8397;SDS011;4236;54.504;9.588;2023-01-24T04:15:23;26.30;;;24.37;;
8397;SDS011;4236;54.504;9.588;2023-01-24T04:17:53;27.27;;;24.90;;
8397;SDS011;4236;54.504;9.588;2023-01-24T04:20:24;26.27;;;24.50;;
8397;SDS011;4236;54.504;9.588;2023-01-24T04:22:52;26.20;;;24.40;;
8397;SDS011;4236;54.504;9.588;2023-01-24T04:25:20;29.77;;;27.10;;
8397;SDS011;4236;54.504;9.588;2023-01-24T04:27:48;26.70;;;24.90;;
8397;SDS011;4236;54.504;9.588;2023-01-24T04:30:16;27.73;;;25.57;;
8397;SDS011;4236;54.504;9.588;2023-01-24T04:32:44;27.93;;;25.53;;
8397;SDS011;4236;54.504;9.588;2023-01-24T04:35:14;26.53;;;24.60;;
8397;SDS011;4236;54.504;9.588;2023-01-24T04:37:44;25.83;;;24.03;;
8397;SDS011;4236;54.504;9.588;2023-01-24T04:40:12;26.80;;;24.57;;
8397;SDS011;4236;54.504;9.588;2023-01-24T04:42:41;27.03;;;24.93;;
8397;SDS011;4236;54.504;9.588;2023-01-24T04:45:09;24.27;;;22.77;;
8397;SDS011;4236;54.504;9.588;2023-01-24T04:47:38;26.73;;;25.07;;
8397;SDS011;4236;54.504;9.588;2023-01-24T04:50:06;28.23;;;26.13;;
8397;SDS011;4236;54.504;9.588;2023-01-24T04:52:34;31.33;;;29.03;;
8397;SDS011;4236;54.504;9.588;2023-01-24T04:55:04;25.70;;;24.00;;
8397;SDS011;4236;54.504;9.588;2023-01-24T04:57:32;27.80;;;25.83;;
8397;SDS011;4236;54.504;9.588;2023-01-24T05:00:00;26.50;;;24.60;;
8397;SDS011;4236;54.504;9.588;2023-01-24T05:02:27;28.17;;;26.10;;
8397;SDS011;4236;54.504;9.588;2023-01-24T05:04:55;30.30;;;28.30;;
8397;SDS011;4236;54.504;9.588;2023-01-24T05:07:23;28.47;;;26.50;;
8397;SDS011;4236;54.504;9.588;2023-01-24T05:09:50;27.30;;;25.53;;
8397;SDS011;4236;54.504;9.588;2023-01-24T05:12:20;29.57;;;27.47;;
8397;SDS011;4236;54.504;9.588;2023-01-24T05:14:47;30.60;;;28.50;;
8397;SDS011;4236;54.504;9.588;2023-01-24T05:17:15;30.17;;;27.90;;
8397;SDS011;4236;54.504;9.588;2023-01-24T05:19:42;30.83;;;28.47;;
8397;SDS011;4236;54.504;9.588;2023-01-24T05:22:10;28.27;;;26.27;;
8397;SDS011;4236;54.504;9.588;2023-01-24T05:24:38;29.07;;;26.93;;
8397;SDS011;4236;54.504;9.588;2023-01-24T05:27:05;28.27;;;26.17;;
8397;SDS011;4236;54.504;9.588;2023-01-24T05:29:35;29.23;;;26.97;;
8397;SDS011;4236;54.504;9.588;2023-01-24T05:32:03;28.97;;;26.70;;
8397;SDS011;4236;54.504;9.588;2023-01-24T05:34:31;29.77;;;27.53;;
8397;SDS011;4236;54.504;9.588;2023-01-24T05:36:59;28.80;;;26.80;;
8397;SDS011;4236;54.504;9.588;2023-01-24T05:39:27;31.10;;;28.90;;
8397;SDS011;4236;54.504;9.588;2023-01-24T05:41:54;29.07;;;27.00;;
8397;SDS011;4236;54.504;9.588;2023-01-24T05:44:22;31.77;;;29.33;;
8397;SDS011;4236;54.504;9.588;2023-01-24T05:46:51;30.67;;;28.53;;
8397;SDS011;4236;54.504;9.588;2023-01-24T05:49:19;27.80;;;25.87;;
8397;SDS011;4236;54.504;9.588;2023-01-24T05:51:46;30.47;;;28.13;;
8397;SDS011;4236;54.504;9.588;2023-01-24T05:54:14;29.83;;;27.70;;
8397;SDS011;4236;54.504;9.588;2023-01-24T05:56:42;29.13;;;26.83;;
8397;SDS011;4236;54.504;9.588;2023-01-24T05:59:10;28.50;;;26.70;;
8397;SDS011;4236;54.504;9.588;2023-01-24T06:01:39;30.57;;;28.40;;
8397;SDS011;4236;54.504;9.588;2023-01-24T06:04:08;33.07;;;30.37;;
8397;SDS011;4236;54.504;9.588;2023-01-24T06:06:36;28.97;;;26.87;;
8397;SDS011;4236;54.504;9.588;2023-01-24T06:09:04;30.73;;;28.53;;
8397;SDS011;4236;54.504;9.588;2023-01-24T06:11:33;29.90;;;27.60;;
8397;SDS011;4236;54.504;9.588;2023-01-24T06:14:01;32.23;;;29.87;;
8397;SDS011;4236;54.504;9.588;2023-01-24T06:16:28;30.27;;;28.00;;
8397;SDS011;4236;54.504;9.588;2023-01-24T06:18:56;30.90;;;28.47;;
8397;SDS011;4236;54.504;9.588;2023-01-24T06:21:32;31.27;;;28.97;;
8397;SDS011;4236;54.504;9.588;2023-01-24T06:24:08;30.80;;;28.47;;
8397;SDS011;4236;54.504;9.588;2023-01-24T06:26:41;29.87;;;27.60;;
8397;SDS011;4236;54.504;9.588;2023-01-24T06:29:09;29.77;;;27.43;;
8397;SDS011;4236;54.504;9.588;2023-01-24T06:31:42;32.80;;;30.50;;
8397;SDS011;4236;54.504;9.588;2023-01-24T06:34:21;31.83;;;29.60;;
8397;SDS011;4236;54.504;9.588;2023-01-24T06:37:07;31.43;;;29.33;;
8397;SDS011;4236;54.504;9.588;2023-01-24T06:39:43;32.30;;;29.87;;
8397;SDS011;4236;54.504;9.588;2023-01-24T06:42:16;32.30;;;29.70;;
8397;SDS011;4236;54.504;9.588;2023-01-24T06:44:44;32.63;;;30.17;;
8397;SDS011;4236;54.504;9.588;2023-01-24T06:47:12;34.07;;;31.43;;
8397;SDS011;4236;54.504;9.588;2023-01-24T06:49:40;33.80;;;31.10;;
8397;SDS011;4236;54.504;9.588;2023-01-24T06:52:10;32.07;;;29.50;;
8397;SDS011;4236;54.504;9.588;2023-01-24T06:54:38;31.00;;;28.70;;
8397;SDS011;4236;54.504;9.588;2023-01-24T06:57:06;29.60;;;27.50;;
8397;SDS011;4236;54.504;9.588;2023-01-24T06:59:34;32.40;;;29.90;;
8397;SDS011;4236;54.504;9.588;2023-01-24T07:02:02;33.97;;;31.17;;
8397;SDS011;4236;54.504;9.588;2023-01-24T07:04:30;32.60;;;30.30;;
8397;SDS011;4236;54.504;9.588;2023-01-24T07:06:58;31.43;;;29.03;;
8397;SDS011;4236;54.504;9.588;2023-01-24T07:09:27;30.73;;;28.23;;
8397;SDS011;4236;54.504;9.588;2023-01-24T07:11:54;33.00;;;30.47;;
8397;SDS011;4236;54.504;9.588;2023-01-24T07:14:24;30.37;;;28.03;;
8397;SDS011;4236;54.504;9.588;2023-01-24T07:16:52;32.70;;;29.93;;
8397;SDS011;4236;54.504;9.588;2023-01-24T07:19:22;32.60;;;30.00;;
8397;SDS011;4236;54.504;9.588;2023-01-24T07:21:51;31.20;;;28.60;;
8397;SDS011;4236;54.504;9.588;2023-01-24T07:24:23;31.20;;;28.50;;
8397;SDS011;4236;54.504;9.588;2023-01-24T07:26:55;31.60;;;29.00;;
8397;SDS011;4236;54.504;9.588;2023-01-24T07:29:23;32.33;;;29.57;;
8397;SDS011;4236;54.504;9.588;2023-01-24T07:31:51;31.90;;;29.27;;
8397;SDS011;4236;54.504;9.588;2023-01-24T07:34:20;29.37;;;27.13;;
8397;SDS011;4236;54.504;9.588;2023-01-24T07:36:47;29.37;;;27.20;;
8397;SDS011;4236;54.504;9.588;2023-01-24T07:39:15;32.23;;;29.47;;
8397;SDS011;4236;54.504;9.588;2023-01-24T07:41:43;32.93;;;29.90;;
8397;SDS011;4236;54.504;9.588;2023-01-24T07:44:13;30.30;;;27.80;;
8397;SDS011;4236;54.504;9.588;2023-01-24T07:46:41;33.57;;;30.60;;
8397;SDS011;4236;54.504;9.588;2023-01-24T07:49:09;30.53;;;28.17;;
8397;SDS011;4236;54.504;9.588;2023-01-24T07:51:36;31.07;;;28.70;;
8397;SDS011;4236;54.504;9.588;2023-01-24T07:54:04;28.83;;;26.63;;
8397;SDS011;4236;54.504;9.588;2023-01-24T07:56:34;29.73;;;27.33;;
8397;SDS011;4236;54.504;9.588;2023-01-24T07:59:02;31.03;;;28.47;;
8397;SDS011;4236;54.504;9.588;2023-01-24T08:01:32;32.27;;;29.63;;
8397;SDS011;4236;54.504;9.588;2023-01-24T08:03:59;28.40;;;26.20;;
8397;SDS011;4236;54.504;9.588;2023-01-24T08:06:27;31.10;;;28.50;;
8397;SDS011;4236;54.504;9.588;2023-01-24T08:08:55;29.20;;;26.73;;
8397;SDS011;4236;54.504;9.588;2023-01-24T08:11:22;29.80;;;27.30;;
8397;SDS011;4236;54.504;9.588;2023-01-24T08:13:51;31.13;;;28.53;;
8397;SDS011;4236;54.504;9.588;2023-01-24T08:16:20;31.50;;;29.00;;
8397;SDS011;4236;54.504;9.588;2023-01-24T08:18:51;31.77;;;28.77;;
8397;SDS011;4236;54.504;9.588;2023-01-24T08:21:19;31.17;;;28.50;;
8397;SDS011;4236;54.504;9.588;2023-01-24T08:23:46;31.03;;;27.97;;
8397;SDS011;4236;54.504;9.588;2023-01-24T08:26:14;30.27;;;27.60;;
8397;SDS011;4236;54.504;9.588;2023-01-24T08:28:42;29.73;;;27.43;;
8397;SDS011;4236;54.504;9.588;2023-01-24T08:31:10;29.93;;;27.40;;
8397;SDS011;4236;54.504;9.588;2023-01-24T08:33:38;29.90;;;27.50;;
8397;SDS011;4236;54.504;9.588;2023-01-24T08:36:08;32.33;;;29.37;;
8397;SDS011;4236;54.504;9.588;2023-01-24T08:38:36;30.57;;;28.07;;
8397;SDS011;4236;54.504;9.588;2023-01-24T08:41:04;31.93;;;29.20;;
8397;SDS011;4236;54.504;9.588;2023-01-24T08:43:34;31.20;;;28.50;;
8397;SDS011;4236;54.504;9.588;2023-01-24T08:46:02;29.20;;;26.77;;
8397;SDS011;4236;54.504;9.588;2023-01-24T08:48:30;29.63;;;27.07;;
8397;SDS011;4236;54.504;9.588;2023-01-24T08:50:58;31.20;;;28.43;;
8397;SDS011;4236;54.504;9.588;2023-01-24T08:53:31;31.03;;;28.20;;
8397;SDS011;4236;54.504;9.588;2023-01-24T08:56:00;31.63;;;28.83;;
8397;SDS011;4236;54.504;9.588;2023-01-24T08:58:28;31.63;;;29.00;;
8397;SDS011;4236;54.504;9.588;2023-01-24T09:00:58;31.20;;;28.50;;
8397;SDS011;4236;54.504;9.588;2023-01-24T09:03:26;31.97;;;29.17;;
8397;SDS011;4236;54.504;9.588;2023-01-24T09:05:55;32.60;;;29.90;;
8397;SDS011;4236;54.504;9.588;2023-01-24T09:08:23;29.37;;;27.13;;
8397;SDS011;4236;54.504;9.588;2023-01-24T09:10:52;30.50;;;28.10;;
8397;SDS011;4236;54.504;9.588;2023-01-24T09:13:20;30.40;;;27.70;;
8397;SDS011;4236;54.504;9.588;2023-01-24T09:15:48;32.97;;;30.03;;
8397;SDS011;4236;54.504;9.588;2023-01-24T09:18:18;31.50;;;28.77;;
8397;SDS011;4236;54.504;9.588;2023-01-24T09:20:45;31.50;;;28.70;;
8397;SDS011;4236;54.504;9.588;2023-01-24T09:23:13;29.20;;;26.87;;
8397;SDS011;4236;54.504;9.588;2023-01-24T09:25:41;31.03;;;28.37;;
8397;SDS011;4236;54.504;9.588;2023-01-24T09:28:18;32.07;;;29.17;;
8397;SDS011;4236;54.504;9.588;2023-01-24T09:30:47;29.90;;;27.40;;
8397;SDS011;4236;54.504;9.588;2023-01-24T09:33:15;30.17;;;27.40;;
8397;SDS011;4236;54.504;9.588;2023-01-24T09:35:50;29.43;;;26.80;;
8397;SDS011;4236;54.504;9.588;2023-01-24T09:38:19;29.93;;;27.30;;
8397;SDS011;4236;54.504;9.588;2023-01-24T09:40:53;28.73;;;26.60;;
8397;SDS011;4236;54.504;9.588;2023-01-24T09:43:36;31.87;;;29.00;;
8397;SDS011;4236;54.504;9.588;2023-01-24T09:49:00;30.73;;;28.10;;
8397;SDS011;4236;54.504;9.588;2023-01-24T09:51:33;29.43;;;26.93;;
8397;SDS011;4236;54.504;9.588;2023-01-24T09:54:04;28.70;;;26.17;;
8397;SDS011;4236;54.504;9.588;2023-01-24T09:56:34;29.50;;;26.90;;
8397;SDS011;4236;54.504;9.588;2023-01-24T09:59:12;28.77;;;26.27;;
8397;SDS011;4236;54.504;9.588;2023-01-24T10:01:44;30.70;;;28.00;;
8397;SDS011;4236;54.504;9.588;2023-01-24T10:04:18;29.40;;;26.90;;
8397;SDS011;4236;54.504;9.588;2023-01-24T10:06:57;30.93;;;28.33;;
8397;SDS011;4236;54.504;9.588;2023-01-24T10:09:49;29.20;;;26.80;;
8397;SDS011;4236;54.504;9.588;2023-01-24T10:12:29;33.43;;;30.77;;
8397;SDS011;4236;54.504;9.588;2023-01-24T10:15:09;30.83;;;28.30;;
8397;SDS011;4236;54.504;9.588;2023-01-24T10:17:48;30.20;;;27.57;;
8397;SDS011;4236;54.504;9.588;2023-01-24T10:20:36;30.03;;;27.33;;
8397;SDS011;4236;54.504;9.588;2023-01-24T10:23:12;29.17;;;26.70;;
8397;SDS011;4236;54.504;9.588;2023-01-24T10:25:51;29.50;;;26.90;;
8397;SDS011;4236;54.504;9.588;2023-01-24T10:28:23;31.40;;;28.33;;
8397;SDS011;4236;54.504;9.588;2023-01-24T10:31:00;28.70;;;26.10;;
8397;SDS011;4236;54.504;9.588;2023-01-24T10:33:33;28.40;;;26.10;;
8397;SDS011;4236;54.504;9.588;2023-01-24T10:36:06;29.77;;;27.20;;
8397;SDS011;4236;54.504;9.588;2023-01-24T10:38:39;29.23;;;26.63;;
8397;SDS011;4236;54.504;9.588;2023-01-24T10:41:18;31.43;;;28.53;;
8397;SDS011;4236;54.504;9.588;2023-01-24T10:43:53;28.67;;;25.97;;
8397;SDS011;4236;54.504;9.588;2023-01-24T10:46:42;29.33;;;26.77;;
8397;SDS011;4236;54.504;9.588;2023-01-24T10:49:18;30.13;;;27.57;;
8397;SDS011;4236;54.504;9.588;2023-01-24T10:52:10;31.80;;;28.90;;
8397;SDS011;4236;54.504;9.588;2023-01-24T10:54:46;29.33;;;26.73;;
8397;SDS011;4236;54.504;9.588;2023-01-24T10:57:18;29.83;;;27.33;;
8397;SDS011;4236;54.504;9.588;2023-01-24T11:00:00;30.57;;;27.90;;
8397;SDS011;4236;54.504;9.588;2023-01-24T11:02:30;28.50;;;26.00;;
8397;SDS011;4236;54.504;9.588;2023-01-24T11:05:01;29.43;;;26.40;;
8397;SDS011;4236;54.504;9.588;2023-01-24T11:07:31;29.03;;;26.57;;
8397;SDS011;4236;54.504;9.588;2023-01-24T11:10:08;31.47;;;28.53;;
8397;SDS011;4236;54.504;9.588;2023-01-24T11:12:46;31.00;;;28.10;;
8397;SDS011;4236;54.504;9.588;2023-01-24T11:15:16;30.27;;;27.47;;
8397;SDS011;4236;54.504;9.588;2023-01-24T11:17:51;31.17;;;28.47;;
8397;SDS011;4236;54.504;9.588;2023-01-24T11:20:24;31.30;;;28.40;;
8397;SDS011;4236;54.504;9.588;2023-01-24T11:23:05;28.67;;;25.93;;
8397;SDS011;4236;54.504;9.588;2023-01-24T11:25:50;29.27;;;26.70;;
8397;SDS011;4236;54.504;9.588;2023-01-24T11:28:22;30.47;;;27.97;;
8397;SDS011;4236;54.504;9.588;2023-01-24T11:30:50;30.67;;;27.90;;
8397;SDS011;4236;54.504;9.588;2023-01-24T11:33:28;28.80;;;26.50;;
8397;SDS011;4236;54.504;9.588;2023-01-24T11:36:07;30.57;;;27.97;;
8397;SDS011;4236;54.504;9.588;2023-01-24T11:38:43;30.97;;;28.07;;
8397;SDS011;4236;54.504;9.588;2023-01-24T11:41:13;30.57;;;28.10;;
8397;SDS011;4236;54.504;9.588;2023-01-24T11:46:59;32.00;;;29.20;;
8397;SDS011;4236;54.504;9.588;2023-01-24T11:49:42;29.73;;;27.33;;
8397;SDS011;4236;54.504;9.588;2023-01-24T11:52:40;29.50;;;27.00;;
8397;SDS011;4236;54.504;9.588;2023-01-24T11:55:28;30.63;;;27.90;;
8397;SDS011;4236;54.504;9.588;2023-01-24T11:58:10;30.73;;;27.93;;
8397;SDS011;4236;54.504;9.588;2023-01-24T12:00:49;30.70;;;27.90;;
8397;SDS011;4236;54.504;9.588;2023-01-24T12:03:31;31.47;;;28.57;;
8397;SDS011;4236;54.504;9.588;2023-01-24T12:06:15;29.93;;;26.93;;
8397;SDS011;4236;54.504;9.588;2023-01-24T12:08:55;30.20;;;27.63;;
8397;SDS011;4236;54.504;9.588;2023-01-24T12:11:31;30.37;;;27.77;;
8397;SDS011;4236;54.504;9.588;2023-01-24T12:17:18;32.03;;;29.20;;
8397;SDS011;4236;54.504;9.588;2023-01-24T12:20:06;29.13;;;26.63;;
8397;SDS011;4236;54.504;9.588;2023-01-24T12:22:58;30.53;;;27.90;;
8397;SDS011;4236;54.504;9.588;2023-01-24T12:25:33;30.67;;;27.47;;
8397;SDS011;4236;54.504;9.588;2023-01-24T12:28:04;29.83;;;27.23;;
8397;SDS011;4236;54.504;9.588;2023-01-24T12:30:39;28.07;;;25.67;;
8397;SDS011;4236;54.504;9.588;2023-01-24T12:33:11;30.17;;;27.57;;
8397;SDS011;4236;54.504;9.588;2023-01-24T12:35:45;30.67;;;27.67;;
8397;SDS011;4236;54.504;9.588;2023-01-24T12:38:18;34.50;;;27.43;;
8397;SDS011;4236;54.504;9.588;2023-01-24T12:40:50;29.73;;;27.03;;
8397;SDS011;4236;54.504;9.588;2023-01-24T12:43:24;31.57;;;28.50;;
8397;SDS011;4236;54.504;9.588;2023-01-24T12:46:01;28.50;;;25.83;;
8397;SDS011;4236;54.504;9.588;2023-01-24T12:48:36;30.73;;;27.80;;
8397;SDS011;4236;54.504;9.588;2023-01-24T12:51:13;31.67;;;28.97;;
8397;SDS011;4236;54.504;9.588;2023-01-24T12:53:54;29.70;;;27.20;;
8397;SDS011;4236;54.504;9.588;2023-01-24T12:56:27;29.73;;;27.13;;
8397;SDS011;4236;54.504;9.588;2023-01-24T12:59:06;30.00;;;27.50;;
8397;SDS011;4236;54.504;9.588;2023-01-24T13:01:50;31.20;;;28.27;;
8397;SDS011;4236;54.504;9.588;2023-01-24T13:04:32;31.70;;;28.67;;
8397;SDS011;4236;54.504;9.588;2023-01-24T13:07:08;30.60;;;27.60;;
8397;SDS011;4236;54.504;9.588;2023-01-24T13:09:53;30.17;;;27.60;;
8397;SDS011;4236;54.504;9.588;2023-01-24T13:12:26;29.37;;;26.67;;
8397;SDS011;4236;54.504;9.588;2023-01-24T13:14:58;27.77;;;25.50;;
8397;SDS011;4236;54.504;9.588;2023-01-24T13:17:31;30.80;;;28.07;;
8397;SDS011;4236;54.504;9.588;2023-01-24T13:20:13;31.50;;;28.67;;
8397;SDS011;4236;54.504;9.588;2023-01-24T13:23:03;29.67;;;27.07;;
8397;SDS011;4236;54.504;9.588;2023-01-24T13:26:07;28.20;;;25.90;;
8397;SDS011;4236;54.504;9.588;2023-01-24T13:28:49;30.93;;;27.97;;
8397;SDS011;4236;54.504;9.588;2023-01-24T13:31:31;29.37;;;26.87;;
8397;SDS011;4236;54.504;9.588;2023-01-24T13:34:05;32.20;;;29.30;;
8397;SDS011;4236;54.504;9.588;2023-01-24T13:36:41;28.57;;;26.17;;
8397;SDS011;4236;54.504;9.588;2023-01-24T13:39:27;28.00;;;25.70;;
8397;SDS011;4236;54.504;9.588;2023-01-24T13:42:04;29.83;;;27.17;;
8397;SDS011;4236;54.504;9.588;2023-01-24T13:44:33;30.80;;;28.00;;
8397;SDS011;4236;54.504;9.588;2023-01-24T13:50:11;28.67;;;26.03;;
8397;SDS011;4236;54.504;9.588;2023-01-24T13:52:44;29.80;;;27.10;;
8397;SDS011;4236;54.504;9.588;2023-01-24T13:58:30;29.50;;;26.40;;
8397;SDS011;4236;54.504;9.588;2023-01-24T14:01:00;28.87;;;26.33;;
8397;SDS011;4236;54.504;9.588;2023-01-24T14:03:30;28.13;;;25.53;;
8397;SDS011;4236;54.504;9.588;2023-01-24T14:06:04;28.90;;;26.43;;
8397;SDS011;4236;54.504;9.588;2023-01-24T14:08:38;30.10;;;26.87;;
8397;SDS011;4236;54.504;9.588;2023-01-24T14:11:15;32.87;;;29.10;;
8397;SDS011;4236;54.504;9.588;2023-01-24T14:13:54;29.30;;;26.80;;
8397;SDS011;4236;54.504;9.588;2023-01-24T14:19:25;30.43;;;27.37;;
8397;SDS011;4236;54.504;9.588;2023-01-24T14:21:59;28.23;;;25.40;;
8397;SDS011;4236;54.504;9.588;2023-01-24T14:24:32;26.73;;;24.53;;
8397;SDS011;4236;54.504;9.588;2023-01-24T14:27:13;30.13;;;27.00;;
8397;SDS011;4236;54.504;9.588;2023-01-24T14:29:47;30.30;;;27.57;;
8397;SDS011;4236;54.504;9.588;2023-01-24T14:32:20;34.83;;;31.33;;
8397;SDS011;4236;54.504;9.588;2023-01-24T14:34:53;30.23;;;27.43;;
8397;SDS011;4236;54.504;9.588;2023-01-24T14:37:29;28.70;;;26.13;;
8397;SDS011;4236;54.504;9.588;2023-01-24T14:42:57;30.67;;;27.87;;
8397;SDS011;4236;54.504;9.588;2023-01-24T14:45:29;31.07;;;28.00;;
8397;SDS011;4236;54.504;9.588;2023-01-24T14:47:58;28.33;;;25.90;;
8397;SDS011;4236;54.504;9.588;2023-01-24T14:50:29;30.00;;;27.20;;
8397;SDS011;4236;54.504;9.588;2023-01-24T14:52:59;28.57;;;25.87;;
8397;SDS011;4236;54.504;9.588;2023-01-24T14:55:32;40.63;;;30.23;;
8397;SDS011;4236;54.504;9.588;2023-01-24T14:58:13;59.47;;;50.47;;
8397;SDS011;4236;54.504;9.588;2023-01-24T15:00:44;38.87;;;34.90;;
8397;SDS011;4236;54.504;9.588;2023-01-24T15:03:15;29.63;;;26.93;;
8397;SDS011;4236;54.504;9.588;2023-01-24T15:05:50;30.30;;;27.60;;
8397;SDS011;4236;54.504;9.588;2023-01-24T15:08:19;31.07;;;28.07;;
8397;SDS011;4236;54.504;9.588;2023-01-24T15:10:51;30.23;;;27.20;;
8397;SDS011;4236;54.504;9.588;2023-01-24T15:13:23;29.50;;;26.90;;
8397;SDS011;4236;54.504;9.588;2023-01-24T15:15:54;31.23;;;28.37;;
8397;SDS011;4236;54.504;9.588;2023-01-24T15:18:35;31.67;;;28.67;;
8397;SDS011;4236;54.504;9.588;2023-01-24T15:21:14;29.20;;;26.67;;
8397;SDS011;4236;54.504;9.588;2023-01-24T15:23:47;31.20;;;28.00;;
8397;SDS011;4236;54.504;9.588;2023-01-24T15:26:20;34.30;;;30.90;;
8397;SDS011;4236;54.504;9.588;2023-01-24T15:28:50;35.10;;;31.40;;
8397;SDS011;4236;54.504;9.588;2023-01-24T15:31:20;34.63;;;31.67;;
8397;SDS011;4236;54.504;9.588;2023-01-24T15:33:52;32.27;;;29.17;;
8397;SDS011;4236;54.504;9.588;2023-01-24T15:36:23;31.73;;;28.93;;
8397;SDS011;4236;54.504;9.588;2023-01-24T15:38:52;32.00;;;29.20;;
8397;SDS011;4236;54.504;9.588;2023-01-24T15:41:23;34.50;;;31.47;;
8397;SDS011;4236;54.504;9.588;2023-01-24T15:44:11;34.03;;;30.83;;